createdAt,value
2023-03-29T00:00:37.761Z,33.30
2023-03-29T00:03:04.671Z,35.45
2023-03-29T00:05:34.939Z,38.50
2023-03-29T00:08:03.928Z,39.30
2023-03-29T00:10:31.137Z,36.08
2023-03-29T00:12:57.984Z,35.20
2023-03-29T00:15:24.825Z,34.69
2023-03-29T00:17:51.615Z,34.25
2023-03-29T00:20:18.407Z,33.96
2023-03-29T00:22:46.644Z,33.70
2023-03-29T00:25:13.451Z,33.57
2023-03-29T00:27:40.236Z,33.56
2023-03-29T00:30:06.989Z,33.34
2023-03-29T00:32:34.070Z,33.43
2023-03-29T00:35:00.958Z,33.44
2023-03-29T00:37:29.768Z,33.08
2023-03-29T00:39:56.752Z,33.06
2023-03-29T00:42:23.527Z,33.05
2023-03-29T00:44:50.386Z,32.94
2023-03-29T00:47:18.120Z,32.89
2023-03-29T00:49:44.884Z,34.88
2023-03-29T00:52:11.664Z,38.17
2023-03-29T00:54:38.486Z,39.17
2023-03-29T00:57:06.644Z,36.04
2023-03-29T00:59:35.370Z,35.18
2023-03-29T01:02:02.170Z,34.53
2023-03-29T01:04:29.526Z,34.11
2023-03-29T01:06:56.459Z,33.80
2023-03-29T01:09:23.258Z,33.88
2023-03-29T01:11:50.032Z,33.74
2023-03-29T01:14:16.786Z,33.70
2023-03-29T01:16:43.597Z,33.25
2023-03-29T01:19:10.369Z,32.96
2023-03-29T01:21:37.743Z,33.19
2023-03-29T01:24:06.567Z,33.25
2023-03-29T01:26:33.354Z,32.93
2023-03-29T01:29:00.117Z,33.07
2023-03-29T01:31:26.894Z,33.02
2023-03-29T01:33:53.703Z,34.46
2023-03-29T01:36:20.519Z,38.48
2023-03-29T01:38:48.280Z,39.36
2023-03-29T01:41:15.079Z,36.12
2023-03-29T01:43:41.861Z,34.95
2023-03-29T01:46:08.626Z,34.53
2023-03-29T01:48:35.451Z,34.16
2023-03-29T01:51:04.372Z,33.78
2023-03-29T01:53:31.464Z,33.85
2023-03-29T01:55:58.248Z,33.63
2023-03-29T01:58:25.007Z,33.35
2023-03-29T02:00:53.882Z,33.23
2023-03-29T02:03:21.812Z,33.21
2023-03-29T02:05:48.974Z,33.21
2023-03-29T02:08:15.920Z,32.83
2023-03-29T02:10:42.748Z,33.09
2023-03-29T02:13:09.483Z,32.99
2023-03-29T02:15:36.272Z,33.05
2023-03-29T02:18:03.933Z,32.89
2023-03-29T02:20:31.406Z,33.07
2023-03-29T02:22:58.369Z,33.36
2023-03-29T02:25:25.862Z,37.60
2023-03-29T02:27:52.669Z,39.12
2023-03-29T02:30:20.594Z,36.12
2023-03-29T02:32:48.841Z,34.89
2023-03-29T02:35:15.742Z,34.54
2023-03-29T02:37:43.012Z,33.99
2023-03-29T02:40:12.351Z,33.70
2023-03-29T02:42:39.087Z,33.29
2023-03-29T02:45:05.829Z,33.41
2023-03-29T02:47:32.690Z,33.07
2023-03-29T02:49:59.508Z,33.16
2023-03-29T02:52:26.324Z,33.15
2023-03-29T02:54:54.284Z,33.16
2023-03-29T02:57:26.278Z,32.76
2023-03-29T02:59:53.143Z,32.97
2023-03-29T03:02:19.978Z,32.57
2023-03-29T03:04:46.890Z,32.66
2023-03-29T03:07:13.652Z,33.08
2023-03-29T03:09:40.455Z,37.46
2023-03-29T03:12:07.509Z,39.20
2023-03-29T03:14:34.295Z,37.14
2023-03-29T03:17:03.875Z,35.24
2023-03-29T03:19:31.498Z,34.61
2023-03-29T03:21:59.527Z,33.96
2023-03-29T03:24:27.970Z,33.73
2023-03-29T03:26:55.267Z,33.45
2023-03-29T03:29:22.057Z,33.40
2023-03-29T03:31:49.073Z,33.10
2023-03-29T03:34:17.320Z,32.86
2023-03-29T03:36:44.075Z,33.11
2023-03-29T03:39:11.719Z,32.79
2023-03-29T03:41:38.674Z,33.13
2023-03-29T03:44:05.516Z,33.10
2023-03-29T03:46:32.303Z,32.86
2023-03-29T03:48:59.524Z,32.70
2023-03-29T03:51:26.994Z,32.85
2023-03-29T03:53:53.772Z,32.74
2023-03-29T03:56:20.543Z,32.62
2023-03-29T03:58:47.492Z,35.54
2023-03-29T04:01:14.262Z,37.26
2023-03-29T04:03:41.184Z,39.05
2023-03-29T04:06:08.088Z,35.45
2023-03-29T04:08:35.021Z,34.53
2023-03-29T04:11:01.948Z,34.47
2023-03-29T04:13:29.259Z,33.91
2023-03-29T04:15:58.806Z,33.20
2023-03-29T04:18:27.407Z,33.42
2023-03-29T04:20:54.255Z,33.37
2023-03-29T04:23:21.026Z,33.08
2023-03-29T04:25:47.787Z,33.06
2023-03-29T04:28:14.544Z,32.79
2023-03-29T04:30:41.302Z,33.09
2023-03-29T04:33:08.126Z,32.85
2023-03-29T04:35:34.988Z,32.86
2023-03-29T04:38:01.996Z,32.65
2023-03-29T04:40:29.006Z,32.56
2023-03-29T04:42:55.819Z,32.88
2023-03-29T04:45:22.617Z,32.63
2023-03-29T04:47:49.692Z,33.00
2023-03-29T04:50:16.496Z,37.77
2023-03-29T04:52:45.247Z,38.66
2023-03-29T04:55:12.643Z,36.04
2023-03-29T04:57:39.555Z,34.51
2023-03-29T05:00:14.661Z,34.22
2023-03-29T05:02:41.697Z,33.66
2023-03-29T05:05:08.487Z,33.49
2023-03-29T05:07:35.617Z,32.99
2023-03-29T05:10:02.369Z,33.23
2023-03-29T05:12:29.108Z,33.11
2023-03-29T05:14:56.759Z,33.17
2023-03-29T05:17:23.901Z,33.08
2023-03-29T05:19:50.706Z,33.03
2023-03-29T05:22:17.480Z,33.02
2023-03-29T05:24:44.406Z,32.65
2023-03-29T05:27:11.659Z,32.67
2023-03-29T05:29:38.430Z,32.73
2023-03-29T05:32:05.393Z,34.30
2023-03-29T05:34:32.210Z,38.12
2023-03-29T05:36:59.131Z,38.72
2023-03-29T05:39:25.930Z,35.62
2023-03-29T05:41:52.975Z,34.69
2023-03-29T05:44:19.767Z,33.98
2023-03-29T05:46:46.935Z,33.63
2023-03-29T05:49:13.815Z,33.37
2023-03-29T05:51:41.940Z,33.26
2023-03-29T05:54:08.849Z,33.26
2023-03-29T05:56:35.741Z,33.00
2023-03-29T05:59:02.635Z,32.96
2023-03-29T06:01:29.366Z,32.97
2023-03-29T06:03:57.343Z,32.89
2023-03-29T06:06:24.200Z,32.81
2023-03-29T06:08:51.061Z,32.72
2023-03-29T06:11:17.805Z,32.48
2023-03-29T06:13:44.593Z,32.51
2023-03-29T06:16:12.855Z,33.94
2023-03-29T06:18:40.140Z,37.68
2023-03-29T06:21:09.110Z,37.34
2023-03-29T06:23:36.304Z,35.28
2023-03-29T06:26:03.377Z,34.17
2023-03-29T06:28:30.550Z,33.94
2023-03-29T06:31:02.921Z,33.60
2023-03-29T06:33:32.221Z,33.12
2023-03-29T06:35:59.117Z,33.38
2023-03-29T06:38:27.944Z,32.97
2023-03-29T06:40:54.704Z,32.91
2023-03-29T06:43:21.571Z,32.84
2023-03-29T06:45:48.322Z,33.09
2023-03-29T06:48:15.146Z,32.69
2023-03-29T06:50:41.920Z,32.91
2023-03-29T06:53:08.728Z,32.89
2023-03-29T06:55:36.045Z,32.48
2023-03-29T06:58:04.091Z,35.74
2023-03-29T07:00:35.760Z,37.60
2023-03-29T07:03:02.698Z,36.03
2023-03-29T07:05:30.048Z,36.03
2023-03-29T07:07:57.279Z,35.37
2023-03-29T07:10:24.203Z,34.60
2023-03-29T07:12:51.448Z,33.88
2023-03-29T07:15:18.276Z,33.70
2023-03-29T07:17:45.627Z,33.56
2023-03-29T07:20:13.863Z,33.24
2023-03-29T07:22:40.775Z,33.35
2023-03-29T07:25:09.249Z,33.25
2023-03-29T07:27:36.020Z,32.85
2023-03-29T07:30:04.110Z,32.95
2023-03-29T07:32:31.319Z,33.02
2023-03-29T07:34:58.321Z,33.01
2023-03-29T07:37:25.122Z,32.82
2023-03-29T07:39:52.236Z,32.99
2023-03-29T07:42:18.991Z,33.02
2023-03-29T07:44:45.856Z,35.58
2023-03-29T07:47:13.247Z,38.21
2023-03-29T07:49:40.068Z,38.05
2023-03-29T07:52:07.101Z,35.59
2023-03-29T07:54:34.367Z,34.87
2023-03-29T07:57:01.214Z,34.50
2023-03-29T07:59:27.983Z,34.01
2023-03-29T08:01:55.286Z,33.90
2023-03-29T08:04:22.170Z,33.46
2023-03-29T08:06:49.031Z,33.37
2023-03-29T08:09:16.454Z,33.02
2023-03-29T08:11:43.225Z,33.14
2023-03-29T08:14:10.137Z,32.90
2023-03-29T08:16:36.955Z,33.10
2023-03-29T08:19:03.719Z,32.90
2023-03-29T08:21:30.470Z,32.92
2023-03-29T08:23:57.599Z,33.04
2023-03-29T08:26:24.396Z,32.67
2023-03-29T08:28:51.419Z,37.39
2023-03-29T08:31:18.483Z,37.71
2023-03-29T08:33:45.301Z,36.82
2023-03-29T08:36:12.302Z,36.09
2023-03-29T08:38:39.132Z,35.14
2023-03-29T08:41:06.027Z,34.37
2023-03-29T08:43:32.809Z,33.92
2023-03-29T08:46:00.030Z,33.90
2023-03-29T08:48:28.300Z,33.56
2023-03-29T08:50:55.205Z,33.27
2023-03-29T08:53:21.989Z,33.33
2023-03-29T08:55:48.872Z,33.53
2023-03-29T08:58:15.736Z,33.27
2023-03-29T09:00:42.767Z,33.23
2023-03-29T09:03:09.621Z,33.30
2023-03-29T09:05:36.987Z,32.94
2023-03-29T09:08:03.801Z,33.14
2023-03-29T09:10:30.877Z,37.46
2023-03-29T09:12:57.681Z,38.12
2023-03-29T09:15:24.854Z,36.02
2023-03-29T09:17:51.661Z,34.53
2023-03-29T09:20:18.487Z,34.23
2023-03-29T09:22:45.430Z,33.77
2023-03-29T09:25:12.203Z,34.00
2023-03-29T09:27:38.989Z,33.56
2023-03-29T09:30:06.090Z,33.62
2023-03-29T09:32:33.014Z,33.25
2023-03-29T09:34:59.882Z,33.31
2023-03-29T09:37:26.666Z,33.22
2023-03-29T09:39:53.477Z,33.19
2023-03-29T09:42:20.265Z,32.91
2023-03-29T09:44:47.310Z,36.15
2023-03-29T09:47:14.038Z,37.73
2023-03-29T09:49:40.848Z,39.33
2023-03-29T09:52:07.607Z,36.81
2023-03-29T09:54:34.379Z,35.55
2023-03-29T09:57:01.874Z,34.98
2023-03-29T09:59:28.989Z,34.60
2023-03-29T10:01:55.928Z,34.24
2023-03-29T10:04:22.797Z,34.15
2023-03-29T10:06:50.259Z,34.14
2023-03-29T10:09:17.025Z,33.85
2023-03-29T10:11:46.609Z,33.47
2023-03-29T10:14:13.445Z,33.59
2023-03-29T10:16:41.157Z,33.67
2023-03-29T10:19:07.947Z,33.38
2023-03-29T10:21:34.733Z,33.39
2023-03-29T10:24:01.830Z,33.12
2023-03-29T10:26:28.600Z,33.09
2023-03-29T10:28:57.144Z,33.17
2023-03-29T10:31:24.038Z,36.70
2023-03-29T10:33:51.023Z,38.80
2023-03-29T10:36:18.044Z,36.68
2023-03-29T10:38:44.973Z,35.34
2023-03-29T10:41:11.988Z,34.42
2023-03-29T10:43:38.793Z,34.42
2023-03-29T10:46:05.914Z,34.05
2023-03-29T10:48:32.710Z,34.03
2023-03-29T10:50:59.589Z,33.69
2023-03-29T10:53:26.530Z,33.53
2023-03-29T10:55:53.404Z,33.73
2023-03-29T10:58:20.274Z,33.56
2023-03-29T11:00:47.572Z,33.42
2023-03-29T11:03:17.048Z,33.43
2023-03-29T11:05:44.974Z,33.85
2023-03-29T11:08:11.728Z,38.17
2023-03-29T11:10:38.498Z,38.20
2023-03-29T11:13:05.738Z,35.96
2023-03-29T11:15:32.979Z,35.16
2023-03-29T11:17:59.794Z,34.66
2023-03-29T11:20:26.920Z,34.47
2023-03-29T11:22:53.824Z,34.31
2023-03-29T11:25:20.631Z,33.94
2023-03-29T11:27:47.445Z,33.60
2023-03-29T11:30:14.603Z,33.76
2023-03-29T11:32:41.951Z,33.61
2023-03-29T11:35:08.766Z,33.57
2023-03-29T11:37:35.606Z,33.59
2023-03-29T11:40:02.370Z,33.76
2023-03-29T11:42:29.458Z,36.21
2023-03-29T11:46:02.595Z,40.33
2023-03-29T11:48:29.702Z,37.67
2023-03-29T11:50:56.486Z,35.85
2023-03-29T11:53:23.239Z,35.01
2023-03-29T11:55:50.001Z,34.70
2023-03-29T11:58:16.754Z,34.65
2023-03-29T12:00:43.523Z,34.10
2023-03-29T12:03:10.393Z,34.07
2023-03-29T12:05:37.261Z,34.28
2023-03-29T12:08:04.015Z,34.00
2023-03-29T12:10:30.857Z,33.68
2023-03-29T12:13:00.579Z,33.60
2023-03-29T12:15:27.348Z,33.86
2023-03-29T12:17:54.264Z,33.63
2023-03-29T12:20:23.416Z,33.60
2023-03-29T12:22:50.861Z,33.82
2023-03-29T12:25:18.829Z,33.63
2023-03-29T12:27:46.715Z,33.57
2023-03-29T12:30:13.482Z,33.60
2023-03-29T12:32:40.293Z,33.52
2023-03-29T12:35:07.314Z,33.45
2023-03-29T12:37:35.801Z,33.52
2023-03-29T12:40:02.678Z,33.18
2023-03-29T12:42:29.531Z,33.49
2023-03-29T12:44:56.374Z,33.30
2023-03-29T12:47:23.494Z,33.45
2023-03-29T12:49:50.248Z,33.41
2023-03-29T12:52:17.025Z,33.19
2023-03-29T12:54:43.940Z,33.35
2023-03-29T12:57:10.851Z,33.39
2023-03-29T12:59:37.922Z,32.98
2023-03-29T13:02:08.551Z,33.62
2023-03-29T13:04:36.121Z,37.73
2023-03-29T13:07:03.420Z,39.82
2023-03-29T13:09:30.256Z,36.98
2023-03-29T13:11:57.155Z,35.41
2023-03-29T13:14:23.914Z,34.87
2023-03-29T13:16:50.792Z,34.73
2023-03-29T13:19:17.552Z,34.19
2023-03-29T13:21:44.341Z,33.84
2023-03-29T13:24:11.169Z,34.03
2023-03-29T13:26:37.941Z,33.95
2023-03-29T13:29:04.685Z,34.04
2023-03-29T13:31:31.561Z,33.83
2023-03-29T13:33:58.346Z,33.79
2023-03-29T13:36:25.178Z,33.52
2023-03-29T13:38:52.005Z,33.38
2023-03-29T13:41:18.752Z,33.32
2023-03-29T13:43:45.554Z,33.44
2023-03-29T13:46:12.470Z,33.26
2023-03-29T13:48:39.337Z,33.45
2023-03-29T13:51:08.199Z,33.41
2023-03-29T13:53:35.018Z,33.26
2023-03-29T13:56:02.903Z,33.42
2023-03-29T13:58:30.010Z,33.40
2023-03-29T14:00:56.948Z,35.50
2023-03-29T14:03:29.555Z,38.90
2023-03-29T14:05:56.387Z,40.42
2023-03-29T14:08:23.153Z,36.58
2023-03-29T14:10:49.920Z,35.31
2023-03-29T14:13:16.835Z,34.72
2023-03-29T14:15:43.668Z,34.41
2023-03-29T14:18:10.711Z,34.18
2023-03-29T14:20:37.513Z,34.37
2023-03-29T14:23:04.285Z,34.18
2023-03-29T14:25:31.047Z,33.81
2023-03-29T14:27:57.815Z,33.89
2023-03-29T14:30:24.860Z,33.54
2023-03-29T14:32:52.322Z,33.90
2023-03-29T14:35:19.151Z,33.94
2023-03-29T14:37:46.339Z,33.74
2023-03-29T14:40:15.234Z,33.88
2023-03-29T14:42:42.410Z,33.78
2023-03-29T14:45:09.710Z,33.76
2023-03-29T14:47:36.744Z,33.78
2023-03-29T14:50:03.853Z,33.76
2023-03-29T14:52:30.736Z,34.09
2023-03-29T14:54:57.572Z,37.25
2023-03-29T14:57:24.422Z,39.95
2023-03-29T14:59:51.600Z,37.98
2023-03-29T15:02:18.423Z,36.34
2023-03-29T15:04:45.155Z,35.50
2023-03-29T15:07:11.964Z,34.70
2023-03-29T15:09:39.856Z,34.36
2023-03-29T15:12:06.594Z,34.55
2023-03-29T15:14:37.889Z,34.17
2023-03-29T15:17:04.636Z,34.40
2023-03-29T15:19:31.828Z,34.47
2023-03-29T15:21:59.947Z,34.07
2023-03-29T15:24:28.531Z,34.04
2023-03-29T15:26:55.502Z,34.23
2023-03-29T15:29:25.863Z,34.13
2023-03-29T15:31:52.721Z,34.00
2023-03-29T15:34:19.676Z,33.88
2023-03-29T15:36:47.184Z,33.77
2023-03-29T15:39:13.985Z,33.62
2023-03-29T15:41:40.985Z,33.91
2023-03-29T15:44:07.842Z,33.58
2023-03-29T15:46:34.624Z,36.91
2023-03-29T15:49:01.367Z,37.93
2023-03-29T15:51:28.139Z,39.39
2023-03-29T15:53:55.116Z,37.87
2023-03-29T15:56:22.802Z,36.39
2023-03-29T15:58:49.597Z,35.19
2023-03-29T16:01:19.028Z,34.88
2023-03-29T16:03:47.872Z,34.89
2023-03-29T16:06:15.033Z,34.59
2023-03-29T16:08:41.929Z,34.37
2023-03-29T16:11:09.037Z,34.45
2023-03-29T16:13:35.834Z,34.39
2023-03-29T16:16:02.894Z,34.32
2023-03-29T16:18:30.004Z,34.23
2023-03-29T16:20:56.989Z,34.18
2023-03-29T16:23:23.760Z,33.97
2023-03-29T16:25:50.699Z,33.76
2023-03-29T16:28:17.519Z,34.00
2023-03-29T16:30:44.282Z,33.90
2023-03-29T16:33:11.233Z,33.99
2023-03-29T16:35:38.197Z,33.54
2023-03-29T16:38:05.120Z,33.40
2023-03-29T16:40:33.064Z,33.49
2023-03-29T16:42:59.929Z,33.16
2023-03-29T16:45:27.155Z,36.79
2023-03-29T16:47:54.454Z,38.09
2023-03-29T16:50:21.832Z,40.19
2023-03-29T16:52:48.764Z,37.33
2023-03-29T16:55:15.692Z,35.70
2023-03-29T16:57:42.492Z,35.86
2023-03-29T17:00:10.727Z,35.17
2023-03-29T17:02:37.589Z,34.89
2023-03-29T17:05:04.444Z,34.69
2023-03-29T17:07:31.273Z,34.61
2023-03-29T17:09:58.316Z,34.39
2023-03-29T17:12:25.360Z,34.19
2023-03-29T17:14:52.552Z,34.12
2023-03-29T17:17:19.304Z,34.17
2023-03-29T17:19:46.099Z,34.09
2023-03-29T17:22:12.895Z,33.78
2023-03-29T17:24:39.651Z,33.90
2023-03-29T17:27:06.442Z,34.07
2023-03-29T17:29:33.197Z,33.95
2023-03-29T17:31:59.976Z,33.80
2023-03-29T17:34:28.856Z,33.72
2023-03-29T17:36:55.690Z,33.79
2023-03-29T17:39:24.950Z,33.83
2023-03-29T17:41:51.870Z,33.60
2023-03-29T17:44:18.682Z,33.51
2023-03-29T17:46:45.950Z,34.19
2023-03-29T17:49:12.790Z,37.42
2023-03-29T17:51:39.547Z,37.54
2023-03-29T17:54:06.672Z,38.54
2023-03-29T17:56:33.831Z,36.64
2023-03-29T17:59:00.852Z,35.53
2023-03-29T18:01:28.125Z,34.99
2023-03-29T18:03:55.005Z,34.54
2023-03-29T18:06:21.814Z,34.74
2023-03-29T18:08:48.584Z,34.55
2023-03-29T18:11:16.007Z,34.38
2023-03-29T18:13:44.275Z,34.30
2023-03-29T18:16:11.068Z,34.25
2023-03-29T18:18:38.356Z,34.36
2023-03-29T18:21:06.798Z,34.21
2023-03-29T18:23:33.863Z,33.69
2023-03-29T18:26:02.886Z,34.09
2023-03-29T18:28:29.862Z,33.90
2023-03-29T18:30:56.628Z,33.93
2023-03-29T18:33:23.386Z,33.69
2023-03-29T18:35:51.006Z,33.70
2023-03-29T18:38:17.765Z,33.67
2023-03-29T18:40:44.555Z,33.34
2023-03-29T18:43:11.312Z,33.86
2023-03-29T18:45:38.123Z,37.32
2023-03-29T18:48:05.580Z,37.77
2023-03-29T18:50:32.397Z,39.21
2023-03-29T18:52:59.163Z,36.98
2023-03-29T18:55:25.957Z,35.43
2023-03-29T18:57:52.744Z,35.17
2023-03-29T19:00:19.885Z,34.72
2023-03-29T19:02:46.736Z,34.55
2023-03-29T19:05:13.732Z,34.36
2023-03-29T19:07:40.521Z,34.43
2023-03-29T19:10:07.687Z,34.23
2023-03-29T19:12:35.233Z,34.50
2023-03-29T19:15:02.081Z,34.10
2023-03-29T19:17:28.997Z,34.31
2023-03-29T19:19:56.669Z,34.13
2023-03-29T19:22:23.430Z,33.71
2023-03-29T19:24:50.327Z,33.63
2023-03-29T19:27:17.105Z,33.80
2023-03-29T19:29:43.851Z,33.69
2023-03-29T19:32:10.880Z,33.69
2023-03-29T19:34:37.657Z,33.75
2023-03-29T19:37:04.378Z,33.30
2023-03-29T19:39:31.173Z,33.62
2023-03-29T19:41:57.976Z,33.33
2023-03-29T19:44:24.810Z,36.61
2023-03-29T19:46:51.696Z,37.47
2023-03-29T19:49:18.810Z,39.68
2023-03-29T19:51:45.933Z,36.99
2023-03-29T19:54:13.168Z,35.86
2023-03-29T19:56:39.995Z,35.62
2023-03-29T19:59:06.850Z,34.91
2023-03-29T20:01:33.817Z,34.52
2023-03-29T20:04:01.626Z,34.47
2023-03-29T20:06:28.573Z,34.46
2023-03-29T20:08:56.328Z,34.23
2023-03-29T20:11:24.210Z,34.20
2023-03-29T20:13:51.008Z,34.30
2023-03-29T20:16:18.102Z,34.09
2023-03-29T20:18:45.097Z,33.79
2023-03-29T20:21:13.849Z,33.96
2023-03-29T20:23:41.111Z,33.70
2023-03-29T20:26:08.323Z,33.51
2023-03-29T20:28:37.410Z,33.75
2023-03-29T20:31:04.417Z,33.81
2023-03-29T20:33:31.607Z,33.61
2023-03-29T20:35:58.505Z,33.68
2023-03-29T20:38:25.821Z,33.71
2023-03-29T20:40:53.392Z,33.39
2023-03-29T20:43:20.177Z,36.56
2023-03-29T20:45:53.851Z,39.23
2023-03-29T20:48:22.800Z,40.40
2023-03-29T20:50:49.966Z,36.80
2023-03-29T20:53:18.002Z,35.58
2023-03-29T20:55:44.810Z,35.07
2023-03-29T20:58:11.633Z,34.93
2023-03-29T21:00:38.422Z,34.55
2023-03-29T21:03:05.242Z,34.35
2023-03-29T21:05:32.160Z,34.39
2023-03-29T21:07:58.937Z,34.35
2023-03-29T21:10:25.715Z,34.18
2023-03-29T21:12:54.139Z,34.10
2023-03-29T21:15:20.912Z,33.97
2023-03-29T21:17:47.789Z,34.03
2023-03-29T21:20:14.609Z,33.76
2023-03-29T21:22:42.902Z,33.90
2023-03-29T21:25:10.005Z,33.62
2023-03-29T21:27:36.764Z,33.75
2023-03-29T21:30:03.585Z,33.70
2023-03-29T21:32:31.291Z,33.49
2023-03-29T21:34:58.117Z,33.22
2023-03-29T21:37:24.899Z,33.55
2023-03-29T21:39:51.763Z,33.55
2023-03-29T21:42:18.622Z,37.01
2023-03-29T21:44:45.500Z,40.12
2023-03-29T21:47:12.239Z,37.62
2023-03-29T21:49:39.545Z,35.56
2023-03-29T21:52:07.047Z,35.17
2023-03-29T21:54:33.856Z,34.68
2023-03-29T21:57:00.667Z,34.55
2023-03-29T21:59:27.825Z,34.54
2023-03-29T22:01:54.740Z,34.33
2023-03-29T22:04:35.409Z,34.09
2023-03-29T22:07:03.691Z,34.06
2023-03-29T22:09:30.477Z,34.11
2023-03-29T22:11:59.558Z,33.85
2023-03-29T22:14:28.385Z,33.75
2023-03-29T22:16:55.354Z,33.85
2023-03-29T22:19:22.327Z,33.76
2023-03-29T22:21:49.146Z,33.70
2023-03-29T22:24:15.909Z,33.34
2023-03-29T22:26:44.753Z,33.33
2023-03-29T22:29:11.814Z,33.59
2023-03-29T22:31:39.295Z,33.55
2023-03-29T22:34:06.497Z,36.63
2023-03-29T22:36:33.403Z,39.11
2023-03-29T22:39:00.306Z,40.83
2023-03-29T22:41:28.064Z,36.98
2023-03-29T22:43:54.861Z,35.79
2023-03-29T22:46:21.685Z,35.52
2023-03-29T22:48:48.605Z,34.81
2023-03-29T22:51:16.048Z,34.76
2023-03-29T22:53:42.790Z,34.60
2023-03-29T22:56:09.591Z,34.48
2023-03-29T22:58:36.819Z,34.18
2023-03-29T23:01:03.752Z,34.05
2023-03-29T23:03:30.929Z,34.04
2023-03-29T23:05:57.767Z,33.94
2023-03-29T23:08:24.698Z,34.06
2023-03-29T23:10:51.462Z,33.56
2023-03-29T23:13:23.936Z,33.92
2023-03-29T23:15:50.735Z,33.55
2023-03-29T23:18:19.614Z,33.80
2023-03-29T23:20:47.120Z,33.78
2023-03-29T23:23:14.211Z,33.75
2023-03-29T23:25:41.311Z,33.58
2023-03-29T23:28:08.253Z,33.48
2023-03-29T23:30:36.986Z,33.43
2023-03-29T23:33:03.807Z,33.19
2023-03-29T23:35:30.749Z,35.57
2023-03-29T23:37:58.151Z,38.69
2023-03-29T23:40:24.943Z,40.96
2023-03-29T23:42:52.893Z,37.85
2023-03-29T23:45:19.650Z,36.33
2023-03-29T23:47:46.489Z,35.50
2023-03-29T23:50:13.663Z,35.19
2023-03-29T23:52:40.588Z,34.58
2023-03-29T23:55:07.358Z,34.73
2023-03-29T23:57:35.015Z,34.32
